Time;durP1;ratioP1;P1;durP2;ratioP2;P2;SDS_P1;SDS_P2;PMS_P1;PMS_P2;Temp;Humidity;BMP_temperature;BMP_pressure;BME280_temperature;BME280_humidity;BME280_pressure;Samples;Min_cycle;Max_cycle;Signal;HPM_P1;HPM_P2
2021/09/28 00:00:03;;;;;;;13.45;7.25;;;10.20;99.90;;;;;;21163463;28;20039;-57
2021/09/28 00:10:13;;;;;;;11.40;7.25;;;10.70;99.90;;;;;;21183266;27;20557;-52
2021/09/28 00:20:16;;;;;;;12.80;6.85;;;11.20;99.90;;;;;;21228131;27;20506;-53
2021/09/28 00:30:18;;;;;;;12.07;6.88;;;11.10;99.90;;;;;;21228157;27;20039;-58
2021/09/28 00:40:20;;;;;;;9.55;5.53;;;10.90;99.90;;;;;;21245545;27;20047;-53
2021/09/28 00:50:22;;;;;;;8.63;5.43;;;10.80;99.90;;;;;;21190941;27;20030;-52
2021/09/28 01:00:25;;;;;;;5.80;3.47;;;11.10;99.90;;;;;;21158469;28;20032;-53
2021/09/28 01:10:27;;;;;;;5.55;3.50;;;11.80;99.90;;;;;;21199373;27;20027;-54
2021/09/28 01:20:29;;;;;;;5.18;3.13;;;11.80;99.90;;;;;;21242305;27;20103;-51
2021/09/28 01:30:31;;;;;;;5.60;2.90;;;11.70;99.90;;;;;;21241347;27;20035;-51
2021/09/28 01:40:34;;;;;;;5.80;3.60;;;11.80;99.90;;;;;;21241134;27;20546;-52
2021/09/28 01:50:36;;;;;;;7.40;3.30;;;11.60;99.90;;;;;;21165836;27;20031;-53
2021/09/28 02:00:38;;;;;;;5.32;3.55;;;12.10;99.90;;;;;;21154431;28;20023;-51
2021/09/28 02:10:40;;;;;;;4.88;3.00;;;12.30;99.90;;;;;;21146698;28;20034;-55
2021/09/28 02:20:44;;;;;;;4.93;2.88;;;12.40;99.90;;;;;;21153890;28;20062;-52
2021/09/28 02:30:46;;;;;;;4.10;2.80;;;12.50;99.90;;;;;;21153082;28;20536;-53
2021/09/28 02:40:48;;;;;;;3.95;2.28;;;12.50;99.90;;;;;;21152589;28;20048;-55
2021/09/28 02:50:50;;;;;;;4.60;2.08;;;12.50;99.90;;;;;;21133971;28;20039;-53
2021/09/28 03:00:52;;;;;;;3.35;2.33;;;12.60;99.90;;;;;;21151966;28;20359;-54
2021/09/28 03:10:54;;;;;;;2.70;1.85;;;12.70;99.90;;;;;;21151379;28;20371;-52
2021/09/28 03:20:57;;;;;;;2.90;1.60;;;12.80;99.90;;;;;;21151064;28;20036;-53
2021/09/28 03:30:59;;;;;;;4.30;2.35;;;12.40;99.90;;;;;;21143043;28;20093;-53
2021/09/28 03:41:01;;;;;;;4.63;2.22;;;12.30;99.90;;;;;;21165017;28;20055;-55
2021/09/28 03:51:04;;;;;;;3.08;1.70;;;12.20;99.90;;;;;;21164189;28;20043;-53
2021/09/28 04:01:06;;;;;;;3.85;2.45;;;12.20;99.90;;;;;;21163693;28;20564;-54
2021/09/28 04:11:08;;;;;;;2.97;1.98;;;12.20;99.90;;;;;;21206440;27;20026;-57
2021/09/28 04:21:10;;;;;;;3.50;2.90;;;12.30;99.90;;;;;;21247542;27;20030;-56
2021/09/28 04:31:14;;;;;;;3.63;2.83;;;12.30;99.90;;;;;;21246368;27;20084;-51
2021/09/28 04:41:17;;;;;;;3.08;2.05;;;12.40;99.90;;;;;;21225388;27;20104;-54
2021/09/28 04:51:18;;;;;;;3.55;2.35;;;12.50;99.90;;;;;;21182872;27;20036;-53
2021/09/28 05:01:20;;;;;;;3.33;1.90;;;12.30;99.90;;;;;;21158893;28;20474;-56
2021/09/28 05:11:23;;;;;;;7.78;2.08;;;12.20;99.90;;;;;;21203289;27;20386;-52
2021/09/28 05:21:26;;;;;;;2.50;1.63;;;12.20;99.90;;;;;;21242200;27;20034;-52
2021/09/28 05:31:28;;;;;;;3.67;2.30;;;12.00;99.90;;;;;;21241544;27;20031;-57
2021/09/28 05:41:30;;;;;;;3.33;2.20;;;11.70;99.90;;;;;;21240762;27;20120;-52
2021/09/28 05:51:33;;;;;;;3.58;1.77;;;11.90;99.90;;;;;;21177022;27;20548;-55
2021/09/28 06:01:35;;;;;;;3.45;2.25;;;12.30;99.90;;;;;;21136380;28;20043;-56
2021/09/28 06:11:37;;;;;;;2.30;1.60;;;12.40;99.90;;;;;;21128566;28;20422;-55
2021/09/28 06:21:39;;;;;;;2.58;1.67;;;12.60;99.90;;;;;;21154249;28;20044;-55
2021/09/28 06:31:42;;;;;;;2.45;1.48;;;12.60;99.90;;;;;;21153693;28;20024;-54
2021/09/28 06:41:44;;;;;;;4.22;1.35;;;12.60;99.90;;;;;;21153002;28;20069;-57
2021/09/28 06:51:47;;;;;;;2.75;1.20;;;12.70;99.90;;;;;;21152619;28;20163;-51
2021/09/28 07:01:50;;;;;;;4.05;1.33;;;13.10;99.90;;;;;;21158087;28;20027;-53
2021/09/28 07:11:52;;;;;;;1.55;1.02;;;13.40;99.90;;;;;;21168057;28;20420;-55
2021/09/28 07:21:54;;;;;;;1.60;0.88;;;13.60;99.90;;;;;;21167324;28;20391;-52
2021/09/28 07:31:57;;;;;;;4.43;1.33;;;14.60;99.90;;;;;;21166442;28;20028;-53
2021/09/28 07:42:03;;;;;;;4.03;3.30;;;16.20;99.90;;;;;;21165328;28;20052;-55
2021/09/28 07:52:05;;;;;;;4.85;3.00;;;17.30;99.90;;;;;;21164866;28;20054;-50
2021/09/28 08:02:07;;;;;;;4.35;2.85;;;18.00;99.90;;;;;;21164087;28;20101;-52
2021/09/28 08:12:12;;;;;;;3.85;2.80;;;18.40;99.90;;;;;;21157886;28;20450;-51
2021/09/28 08:22:15;;;;;;;3.35;2.53;;;18.70;99.90;;;;;;21162746;28;20555;-51
2021/09/28 08:32:17;;;;;;;3.42;2.92;;;19.20;99.90;;;;;;21161308;28;20031;-53
2021/09/28 08:42:20;;;;;;;4.40;2.22;;;19.90;99.90;;;;;;21215874;27;20461;-52
2021/09/28 08:52:22;;;;;;;5.07;2.95;;;20.20;99.90;;;;;;21174218;27;20097;-52
2021/09/28 09:02:43;;;;;;;3.30;2.40;;;20.60;99.90;;;;;;21139656;28;20470;-52
2021/09/28 09:12:45;;;;;;;2.65;2.10;;;20.70;99.90;;;;;;21214900;27;20030;-53
2021/09/28 09:22:47;;;;;;;3.03;2.13;;;21.20;99.90;;;;;;21241733;27;20039;-51
2021/09/28 09:32:57;;;;;;;2.40;1.40;;;21.60;99.90;;;;;;21241225;27;20034;-56
2021/09/28 09:42:59;;;;;;;2.28;1.90;;;22.00;97.40;;;;;;21240969;27;20035;-51
2021/09/28 09:53:03;;;;;;;2.60;2.15;;;22.10;96.00;;;;;;21163617;27;20062;-51
2021/09/28 10:03:06;;;;;;;2.28;1.90;;;22.00;95.20;;;;;;21153994;28;20425;-52
2021/09/28 10:13:44;;;;;;;5.93;3.03;;;22.20;97.00;;;;;;21197770;27;20039;-51
2021/09/28 10:24:18;;;;;;;3.97;2.93;;;22.20;98.20;;;;;;21220041;27;20053;-52
2021/09/28 10:34:20;;;;;;;2.50;2.20;;;22.40;98.20;;;;;;21239216;27;20031;-55
2021/09/28 10:44:37;;;;;;;3.15;2.50;;;22.40;98.90;;;;;;21252463;27;20047;-52
2021/09/28 10:55:12;;;;;;;3.33;2.35;;;22.60;99.90;;;;;;21169231;28;20028;-51
2021/09/28 11:05:34;;;;;;;2.67;2.03;;;22.90;98.30;;;;;;21124750;28;20051;-58
2021/09/28 11:15:37;;;;;;;2.35;1.75;;;23.10;94.50;;;;;;21167749;28;20028;-52
2021/09/28 11:25:48;;;;;;;3.17;2.60;;;23.00;95.00;;;;;;21166721;28;20544;-51
2021/09/28 11:36:05;;;;;;;3.03;2.38;;;23.20;95.60;;;;;;21165375;28;20475;-53
2021/09/28 11:46:09;;;;;;;3.05;2.22;;;22.90;96.70;;;;;;21080717;28;20548;-56
2021/09/28 11:56:19;;;;;;;2.47;1.98;;;23.00;95.00;;;;;;21079745;28;20032;-54
2021/09/28 12:06:46;;;;;;;3.15;2.25;;;23.20;94.80;;;;;;21078568;28;20045;-55
2021/09/28 12:16:51;;;;;;;3.40;2.88;;;23.30;95.00;;;;;;21079816;28;20028;-57
2021/09/28 12:26:53;;;;;;;6.68;3.35;;;23.50;95.80;;;;;;21077564;28;20089;-54
2021/09/28 12:37:02;;;;;;;3.65;2.67;;;22.90;97.50;;;;;;21095547;27;20047;-56
2021/09/28 12:47:29;;;;;;;4.10;2.30;;;23.00;97.30;;;;;;21220008;27;20328;-52
2021/09/28 12:57:31;;;;;;;2.97;2.13;;;22.90;95.40;;;;;;21158746;28;20036;-52
2021/09/28 13:07:33;;;;;;;4.65;3.22;;;22.80;94.70;;;;;;21139712;28;20044;-53
2021/09/28 13:17:35;;;;;;;4.32;2.67;;;22.50;98.80;;;;;;21158413;28;20356;-51
2021/09/28 13:27:38;;;;;;;4.50;2.63;;;22.60;96.60;;;;;;21157491;28;20032;-55
2021/09/28 13:37:40;;;;;;;3.53;2.30;;;22.20;95.50;;;;;;21148393;28;20044;-56
2021/09/28 13:47:42;;;;;;;3.97;2.60;;;21.50;97.50;;;;;;21152433;28;20106;-53
2021/09/28 13:57:44;;;;;;;5.82;3.95;;;20.90;98.20;;;;;;21154926;28;20039;-57
2021/09/28 14:07:46;;;;;;;3.55;2.65;;;20.40;99.30;;;;;;21153412;28;20096;-56
2021/09/28 14:17:48;;;;;;;5.07;3.13;;;20.30;97.60;;;;;;21152758;28;20031;-53
2021/09/28 14:27:50;;;;;;;3.42;2.83;;;20.00;97.70;;;;;;21153156;28;20035;-51
2021/09/28 14:37:52;;;;;;;3.05;2.70;;;19.70;98.70;;;;;;21135335;28;20040;-54
2021/09/28 14:47:54;;;;;;;6.47;3.63;;;19.10;98.50;;;;;;21066985;28;20070;-51
2021/09/28 14:57:56;;;;;;;6.55;3.22;;;18.50;99.90;;;;;;21068091;28;20028;-52
2021/09/28 15:07:58;;;;;;;14.23;3.50;;;18.40;99.90;;;;;;21067143;28;20044;-56
2021/09/28 15:18:00;;;;;;;3.08;2.42;;;18.40;99.90;;;;;;21066914;28;20028;-52
2021/09/28 15:28:05;;;;;;;4.00;2.72;;;18.40;99.90;;;;;;21060327;28;20095;-54
2021/09/28 15:38:07;;;;;;;3.88;2.17;;;18.20;99.90;;;;;;21100767;28;20116;-53
2021/09/28 15:48:09;;;;;;;2.40;1.88;;;18.00;99.90;;;;;;21130420;28;20368;-52
2021/09/28 15:58:11;;;;;;;3.40;1.88;;;17.50;99.00;;;;;;21079771;28;20112;-54
2021/09/28 16:08:13;;;;;;;3.10;1.52;;;17.20;99.50;;;;;;21078364;28;20078;-54
2021/09/28 16:18:15;;;;;;;2.35;1.73;;;16.80;99.90;;;;;;21078445;28;20062;-53
2021/09/28 16:28:17;;;;;;;2.60;1.98;;;16.20;99.90;;;;;;21077529;28;20032;-55
2021/09/28 16:38:20;;;;;;;2.60;1.88;;;15.60;99.90;;;;;;21075376;28;20044;-52
2021/09/28 16:48:26;;;;;;;5.25;2.10;;;15.00;99.90;;;;;;21074695;28;20047;-57
2021/09/28 16:58:30;;;;;;;3.05;2.10;;;14.30;99.90;;;;;;21074872;28;20027;-57
2021/09/28 17:08:33;;;;;;;3.65;2.10;;;13.60;99.90;;;;;;21074084;28;20560;-52
2021/09/28 17:18:37;;;;;;;3.28;1.95;;;13.00;99.90;;;;;;21073313;28;20073;-54
2021/09/28 17:28:39;;;;;;;4.78;1.88;;;12.60;99.90;;;;;;21073004;28;20036;-54
2021/09/28 17:38:42;;;;;;;3.05;1.80;;;12.20;99.90;;;;;;21096793;28;20059;-55
2021/09/28 17:48:44;;;;;;;2.13;1.48;;;12.10;99.90;;;;;;21116331;28;20145;-53
2021/09/28 17:58:47;;;;;;;2.40;1.30;;;12.00;99.90;;;;;;21070939;28;20035;-53
2021/09/28 18:08:50;;;;;;;2.42;1.23;;;12.00;99.90;;;;;;21103906;28;20051;-51
2021/09/28 18:18:54;;;;;;;1.67;1.10;;;12.10;99.90;;;;;;21153791;28;20097;-56
2021/09/28 18:28:57;;;;;;;2.60;1.15;;;12.20;99.90;;;;;;21152960;28;20605;-52
2021/09/28 18:39:02;;;;;;;1.60;1.05;;;12.20;99.90;;;;;;21125380;28;20040;-51
2021/09/28 18:49:19;;;;;;;1.15;0.60;;;12.40;99.90;;;;;;21067902;28;20105;-56
2021/09/28 18:59:26;;;;;;;3.10;1.13;;;12.40;99.90;;;;;;21076197;28;20092;-54
2021/09/28 19:09:29;;;;;;;3.30;1.10;;;12.40;99.90;;;;;;21083029;28;20101;-56
2021/09/28 19:19:35;;;;;;;1.45;0.80;;;12.40;99.90;;;;;;21083184;28;20089;-56
2021/09/28 19:29:41;;;;;;;1.27;0.82;;;12.40;99.90;;;;;;21082029;28;20391;-55
2021/09/28 19:40:05;;;;;;;3.25;0.88;;;12.60;99.90;;;;;;21094998;28;20085;-56
2021/09/28 19:50:10;;;;;;;2.03;1.10;;;12.80;99.90;;;;;;21164398;28;20039;-54
2021/09/28 20:41:21;;;;;;;6.15;0.90;;;11.80;99.90;;;;;;21245351;27;20032;-54
2021/09/28 20:51:23;;;;;;;1.85;0.90;;;11.70;99.90;;;;;;21182721;27;20479;-56
2021/09/28 21:01:26;;;;;;;1.58;0.77;;;11.60;99.90;;;;;;21158781;28;20032;-54
2021/09/28 21:11:28;;;;;;;2.13;1.05;;;11.60;99.90;;;;;;21212349;27;20543;-55
2021/09/28 21:21:30;;;;;;;1.52;1.08;;;11.60;99.90;;;;;;21241932;27;20027;-56
2021/09/28 21:31:32;;;;;;;1.48;0.95;;;11.60;99.90;;;;;;21241791;27;20390;-56
2021/09/28 21:41:35;;;;;;;1.25;0.80;;;11.70;99.90;;;;;;21240829;27;20095;-55
2021/09/28 21:51:39;;;;;;;1.27;0.82;;;11.90;99.90;;;;;;21176362;27;20047;-56
2021/09/28 22:01:41;;;;;;;1.95;1.02;;;11.90;99.90;;;;;;21120238;28;20048;-55
2021/09/28 22:11:43;;;;;;;1.13;0.82;;;11.90;99.90;;;;;;21153926;28;20112;-56
2021/09/28 22:21:46;;;;;;;1.92;1.17;;;11.80;99.90;;;;;;21153718;28;20039;-54
2021/09/28 22:31:48;;;;;;;3.08;1.10;;;11.60;99.90;;;;;;21123159;28;20047;-57
2021/09/28 22:41:50;;;;;;;3.45;1.10;;;11.50;99.90;;;;;;21170903;28;20052;-55
2021/09/28 22:51:52;;;;;;;1.67;1.05;;;11.40;99.90;;;;;;21170578;28;20100;-53
2021/09/28 23:01:55;;;;;;;2.10;1.08;;;11.30;99.90;;;;;;21168704;28;20036;-55
2021/09/28 23:11:57;;;;;;;2.60;1.27;;;11.10;99.90;;;;;;21148897;28;20092;-51
2021/09/28 23:21:59;;;;;;;2.25;1.10;;;10.90;99.90;;;;;;21167444;28;20080;-52
2021/09/28 23:32:02;;;;;;;2.88;1.67;;;10.80;99.90;;;;;;21166486;28;20379;-51
2021/09/28 23:42:04;;;;;;;3.00;2.03;;;10.80;99.90;;;;;;21164915;28;20599;-54
2021/09/28 23:52:05;;;;;;;2.50;1.60;;;11.00;99.90;;;;;;21030362;28;20028;-52
